KFKL/FKL METAR and TAF weather

Enter ICAO airport designator
Station Type Date Time Source
KFKL METAR 2020/04/05 20:56 UTC NOAA

KFKL 052056Z AUTO 31008KT 10SM BKN028 OVC070 11/04 A3006 RMK AO2 SLP187 T01060044 53002


Station Type Date Time Source
KFKL Decoded METAR 2020/04/05 20:56 UTC NOAA

Franklin, Venango Regional Airport, PA, United States (KFKL) 41-23N 079-52W
Apr 05, 2020 - 04:56 PM EDT / 2020.04.05 2056 UTC
Wind: from the NW (310 degrees) at 9 MPH (8 KT):0
Visibility: 10 mile(s):0
Sky conditions: overcast
Temperature: 51.1 F (10.6 C)
Dew Point: 39.9 F (4.4 C)
Relative Humidity: 65%
Pressure (altimeter): 30.06 in. Hg (1017 hPa)
Pressure tendency: 0.01 inches (0.2 hPa) higher than three hours ago
ob: KFKL 052056Z AUTO 31008KT 10SM BKN028 OVC070 11/04 A3006 RMK AO2 SLP187 T01060044 53002
cycle: 21

Station Type Date Time Source
KFKL TAF 2020/04/05 18:33 UTC NOAA

TAF KFKL 051730Z 0518/0618 32009KT P6SM BKN035
FM052100 32005KT P6SM SCT060
FM060500 36002KT P6SM SCT250
FM061300 05003KT P6SM SCT250
FM061700 13004KT P6SM SCT250

Example: see airport list